Time;durP1;ratioP1;P1;durP2;ratioP2;P2;SDS_P1;SDS_P2;PMS_P1;PMS_P2;Temp;Humidity;BMP_temperature;BMP_pressure;BME280_temperature;BME280_humidity;BME280_pressure;Samples;Min_cycle;Max_cycle;Signal;HPM_P1;HPM_P2
2022/09/25 04:59:16;;;;;;;0.50;0.50;;;;;;;20.85;50.36;98740.96;1936160;72;27982;-72
2022/09/25 05:02:05;;;;;;;0.50;0.50;;;;;;;21.20;49.82;98742.24;1918013;73;28099;-73
2022/09/25 05:04:53;;;;;;;0.50;0.50;;;;;;;21.98;48.46;98746.44;1911251;73;28003;-76
2022/09/25 05:07:54;;;;;;;0.85;0.60;;;;;;;22.62;47.19;98740.32;1883115;73;28074;-74
2022/09/25 05:10:44;;;;;;;0.90;0.40;;;;;;;23.14;46.16;98742.63;1904525;73;28146;-73
2022/09/25 05:13:33;;;;;;;0.70;0.70;;;;;;;23.57;45.62;98735.72;1914073;73;28149;-74
2022/09/25 05:16:21;;;;;;;0.37;0.37;;;;;;;23.92;44.87;98730.56;1906080;73;28177;-71
2022/09/25 05:19:10;;;;;;;0.47;0.42;;;;;;;24.22;44.08;98734.14;1908866;73;28083;-72
2022/09/25 05:21:58;;;;;;;0.55;0.55;;;;;;;24.45;43.64;98730.17;1901975;75;28143;-71
2022/09/25 05:24:46;;;;;;;0.60;0.60;;;;;;;24.65;43.22;98733.02;1910315;73;28204;-71
2022/09/25 05:27:35;;;;;;;0.50;0.50;;;;;;;24.81;42.90;98728.49;1909407;73;28160;-71
2022/09/25 05:30:27;;;;;;;0.50;0.50;;;;;;;24.95;42.59;98735.16;1913473;73;28139;-72
2022/09/25 05:33:17;;;;;;;0.35;0.35;;;;;;;24.97;42.45;98723.34;1901915;74;28088;-71
2022/09/25 05:36:07;;;;;;;0.55;0.55;;;;;;;25.11;42.18;98728.62;1915899;73;28383;-71
2022/09/25 05:38:59;;;;;;;1.80;0.60;;;;;;;25.23;41.95;98726.44;1911541;73;28062;-71
2022/09/25 05:41:46;;;;;;;0.55;0.55;;;;;;;25.31;41.67;98720.42;1924786;73;28079;-71
2022/09/25 05:44:35;;;;;;;0.53;0.53;;;;;;;25.33;41.53;98712.73;1906283;73;28014;-71
2022/09/25 05:47:23;;;;;;;0.40;0.40;;;;;;;25.41;41.33;98721.83;1914668;73;27970;-70
2022/09/25 05:50:14;;;;;;;0.55;0.50;;;;;;;25.44;41.13;98719.13;1928228;73;28008;-71
2022/09/25 05:53:05;;;;;;;0.50;0.50;;;;;;;25.47;41.08;98722.14;1915323;73;28064;-71
2022/09/25 05:55:57;;;;;;;0.50;0.50;;;;;;;25.48;40.98;98724.34;1904095;73;28030;-71
2022/09/25 11:00:49;;;;;;;0.57;0.57;;;;;;;20.98;54.42;98853.98;1930091;72;28062;-76
2022/09/25 11:03:41;;;;;;;0.80;0.60;;;;;;;21.32;53.79;98851.77;1886233;75;28203;-74
2022/09/25 11:06:33;;;;;;;1.70;0.57;;;;;;;22.18;52.49;98855.33;1885193;73;28075;-77
2022/09/25 11:09:31;;;;;;;0.68;0.50;;;;;;;22.82;51.34;98847.94;1886831;75;28033;-74
2022/09/25 11:12:31;;;;;;;0.50;0.50;;;;;;;23.35;50.37;98830.34;1877644;75;28032;-81
2022/09/25 11:15:24;;;;;;;486.70;132.77;;;;;;;23.71;49.58;98827.45;1885960;75;28077;-72
2022/09/25 11:18:33;;;;;;;36.48;13.05;;;;;;;24.13;49.01;98855.63;1874463;75;28304;-73
2022/09/25 11:21:27;;;;;;;48.73;17.50;;;;;;;24.38;46.72;98855.31;1882190;75;28553;-74
2022/09/25 11:24:23;;;;;;;10.78;4.20;;;;;;;24.46;45.42;98853.44;1882156;75;28199;-80
2022/09/25 11:27:24;;;;;;;9.88;3.98;;;;;;;24.57;44.74;98855.74;1893361;75;28115;-84
2022/09/25 11:30:18;;;;;;;1.82;1.72;;;;;;;24.57;44.14;98854.37;1892415;75;28145;-79
2022/09/25 15:55:16;;;;;;;2.00;0.90;;;;;;;21.14;50.43;98760.98;1933606;72;27981;-76
2022/09/25 15:58:07;;;;;;;0.78;0.78;;;;;;;21.54;50.01;98752.73;1934738;73;28138;-75
2022/09/25 16:07:35;;;;;;;1.25;0.82;;;;;;;23.52;45.51;98764.48;1902742;73;28107;-78
2022/09/25 16:10:32;;;;;;;0.93;0.93;;;;;;;23.90;44.71;98768.41;1909373;73;28113;-76
2022/09/25 16:13:23;;;;;;;1.00;1.00;;;;;;;24.22;44.14;98767.08;1906802;73;28156;-76
2022/09/25 16:16:29;;;;;;;0.80;0.80;;;;;;;24.47;43.71;98770.00;1901880;75;28125;-76
2022/09/25 16:19:26;;;;;;;0.90;0.90;;;;;;;24.69;43.27;98765.75;1901669;73;27993;-76
2022/09/25 16:22:21;;;;;;;0.80;0.80;;;;;;;24.92;42.88;98770.02;1904648;73;28079;-76
2022/09/25 16:25:19;;;;;;;1.40;0.90;;;;;;;25.10;42.39;98765.42;1903632;73;28094;-78
2022/09/25 16:28:18;;;;;;;0.80;0.80;;;;;;;25.24;42.13;98761.09;1911210;73;28215;-79
2022/09/25 16:31:08;;;;;;;1.77;0.80;;;;;;;25.37;41.89;98763.31;1901937;73;28111;-79
2022/09/25 16:33:59;;;;;;;1.70;0.95;;;;;;;25.47;41.70;98769.43;1855904;76;28323;-78
2022/09/25 16:36:50;;;;;;;0.80;0.80;;;;;;;25.51;41.49;98774.11;1911814;73;28090;-79
2022/09/25 16:39:39;;;;;;;0.80;0.80;;;;;;;25.55;41.39;98775.80;1905289;73;28180;-77
2022/09/25 16:42:38;;;;;;;0.60;0.60;;;;;;;25.55;41.24;98775.80;1903732;73;28129;-74
2022/09/25 16:45:32;;;;;;;0.80;0.80;;;;;;;25.49;41.43;98785.94;1925322;73;28055;-76
2022/09/25 16:48:39;;;;;;;0.80;0.80;;;;;;;25.51;41.46;98796.11;1901629;73;28146;-77
2022/09/25 16:51:32;;;;;;;0.88;0.88;;;;;;;25.49;41.72;98791.98;1901536;73;28217;-76
2022/09/25 16:54:30;;;;;;;0.70;0.70;;;;;;;25.54;41.54;98790.08;1915967;73;27985;-77
2022/09/25 16:57:16;;;;;;;0.75;0.72;;;;;;;25.57;41.52;98794.22;1893011;74;28131;-75
2022/09/25 17:00:04;;;;;;;2.30;0.80;;;;;;;25.56;41.46;98793.39;1886692;75;27824;-77
2022/09/25 17:02:53;;;;;;;0.80;0.80;;;;;;;25.57;41.41;98801.09;1895626;74;28197;-77
2022/09/25 17:05:43;;;;;;;0.70;0.70;;;;;;;25.59;41.37;98805.23;1912198;73;31049;-76
2022/09/25 17:08:31;;;;;;;0.78;0.78;;;;;;;25.60;41.30;98804.11;1893111;74;28590;-76
2022/09/25 17:11:22;;;;;;;0.90;0.90;;;;;;;25.62;41.27;98800.57;1910360;73;28474;-76
2022/09/25 17:14:25;;;;;;;0.75;0.75;;;;;;;25.63;41.22;98800.83;1905892;73;31075;-77
2022/09/25 17:17:16;;;;;;;0.75;0.75;;;;;;;25.65;41.21;98797.83;1899439;73;28388;-76
2022/09/25 17:20:06;;;;;;;0.70;0.70;;;;;;;25.60;41.22;98799.98;1896059;73;28177;-76
2022/09/25 17:22:56;;;;;;;0.60;0.60;;;;;;;25.54;41.25;98787.34;1901180;73;28099;-76
2022/09/25 17:25:53;;;;;;;0.80;0.80;;;;;;;25.63;41.20;98798.63;1895819;74;28081;-77
2022/09/25 17:28:43;;;;;;;0.70;0.70;;;;;;;25.61;41.25;98802.20;1906094;73;27985;-76
2022/09/25 17:31:32;;;;;;;0.80;0.80;;;;;;;25.60;41.26;98805.48;1909201;73;28119;-78
2022/09/25 17:34:28;;;;;;;0.60;0.60;;;;;;;25.62;41.25;98803.33;1889194;74;28177;-78
2022/09/25 17:37:16;;;;;;;0.70;0.70;;;;;;;25.61;41.24;98807.70;1917122;73;28130;-76
2022/09/25 17:40:04;;;;;;;0.80;0.80;;;;;;;25.61;41.24;98813.20;1894262;74;28045;-77
2022/09/25 17:42:52;;;;;;;0.60;0.60;;;;;;;25.62;41.27;98820.37;1901539;73;28066;-77
2022/09/25 17:45:47;;;;;;;0.70;0.70;;;;;;;25.64;41.21;98821.75;1901385;75;28027;-77
2022/09/25 17:48:35;;;;;;;0.70;0.70;;;;;;;25.63;41.25;98820.63;1913949;73;28179;-76
2022/09/25 17:51:29;;;;;;;0.70;0.70;;;;;;;25.59;41.58;98827.23;1904569;74;28105;-76
2022/09/25 17:54:17;;;;;;;0.80;0.80;;;;;;;25.61;41.59;98832.45;1924951;73;28002;-76
